sensor_id;sensor_type;location;lat;lon;timestamp;P1;durP1;ratioP1;P2;durP2;ratioP2
71665;SDS011;59503;53.486;10.196;2023-06-10T00:00:46;12.32;;;4.18;;
71665;SDS011;59503;53.486;10.196;2023-06-10T00:03:12;10.10;;;3.90;;
71665;SDS011;59503;53.486;10.196;2023-06-10T00:05:38;9.73;;;3.80;;
71665;SDS011;59503;53.486;10.196;2023-06-10T00:08:06;7.25;;;3.63;;
71665;SDS011;59503;53.486;10.196;2023-06-10T00:10:38;9.53;;;3.83;;
71665;SDS011;59503;53.486;10.196;2023-06-10T00:13:04;9.95;;;3.95;;
71665;SDS011;59503;53.486;10.196;2023-06-10T00:15:33;13.48;;;4.55;;
71665;SDS011;59503;53.486;10.196;2023-06-10T00:18:00;12.23;;;3.42;;
71665;SDS011;59503;53.486;10.196;2023-06-10T00:20:26;11.35;;;4.57;;
71665;SDS011;59503;53.486;10.196;2023-06-10T00:22:51;11.10;;;3.63;;
71665;SDS011;59503;53.486;10.196;2023-06-10T00:25:17;8.90;;;3.40;;
71665;SDS011;59503;53.486;10.196;2023-06-10T00:27:43;9.02;;;3.10;;
71665;SDS011;59503;53.486;10.196;2023-06-10T00:30:08;12.70;;;3.10;;
71665;SDS011;59503;53.486;10.196;2023-06-10T00:32:35;9.10;;;3.33;;
71665;SDS011;59503;53.486;10.196;2023-06-10T00:35:01;11.75;;;3.72;;
71665;SDS011;59503;53.486;10.196;2023-06-10T00:37:27;11.10;;;3.70;;
71665;SDS011;59503;53.486;10.196;2023-06-10T00:39:54;13.25;;;3.88;;
71665;SDS011;59503;53.486;10.196;2023-06-10T00:42:19;8.53;;;4.20;;
71665;SDS011;59503;53.486;10.196;2023-06-10T00:44:45;10.53;;;3.37;;
71665;SDS011;59503;53.486;10.196;2023-06-10T00:47:10;9.52;;;3.92;;
71665;SDS011;59503;53.486;10.196;2023-06-10T00:49:36;8.90;;;3.50;;
71665;SDS011;59503;53.486;10.196;2023-06-10T00:52:02;11.60;;;4.10;;
71665;SDS011;59503;53.486;10.196;2023-06-10T00:54:29;7.32;;;3.40;;
71665;SDS011;59503;53.486;10.196;2023-06-10T00:56:55;12.15;;;3.50;;
71665;SDS011;59503;53.486;10.196;2023-06-10T00:59:21;6.67;;;3.10;;
71665;SDS011;59503;53.486;10.196;2023-06-10T01:01:47;10.63;;;3.53;;
71665;SDS011;59503;53.486;10.196;2023-06-10T01:04:13;11.70;;;3.37;;
71665;SDS011;59503;53.486;10.196;2023-06-10T01:06:46;12.23;;;3.42;;
71665;SDS011;59503;53.486;10.196;2023-06-10T01:15:03;12.60;;;3.63;;
71665;SDS011;59503;53.486;10.196;2023-06-10T01:17:29;11.70;;;3.55;;
71665;SDS011;59503;53.486;10.196;2023-06-10T01:19:58;8.32;;;3.90;;
71665;SDS011;59503;53.486;10.196;2023-06-10T01:22:24;10.88;;;3.35;;
71665;SDS011;59503;53.486;10.196;2023-06-10T01:24:53;12.43;;;3.60;;
71665;SDS011;59503;53.486;10.196;2023-06-10T01:27:23;6.13;;;2.90;;
71665;SDS011;59503;53.486;10.196;2023-06-10T01:30:04;9.50;;;3.70;;
71665;SDS011;59503;53.486;10.196;2023-06-10T01:32:50;9.65;;;3.17;;
71665;SDS011;59503;53.486;10.196;2023-06-10T01:35:17;14.60;;;3.40;;
71665;SDS011;59503;53.486;10.196;2023-06-10T01:37:45;12.25;;;3.60;;
71665;SDS011;59503;53.486;10.196;2023-06-10T01:40:12;15.40;;;2.93;;
71665;SDS011;59503;53.486;10.196;2023-06-10T01:42:39;9.90;;;3.42;;
71665;SDS011;59503;53.486;10.196;2023-06-10T01:45:05;7.22;;;2.40;;
71665;SDS011;59503;53.486;10.196;2023-06-10T01:47:31;7.47;;;3.05;;
71665;SDS011;59503;53.486;10.196;2023-06-10T01:49:56;8.63;;;3.03;;
71665;SDS011;59503;53.486;10.196;2023-06-10T01:52:22;7.13;;;2.90;;
71665;SDS011;59503;53.486;10.196;2023-06-10T01:54:48;5.93;;;2.72;;
71665;SDS011;59503;53.486;10.196;2023-06-10T01:57:13;11.33;;;2.70;;
71665;SDS011;59503;53.486;10.196;2023-06-10T01:59:39;8.55;;;2.53;;
71665;SDS011;59503;53.486;10.196;2023-06-10T02:02:04;10.10;;;3.27;;
71665;SDS011;59503;53.486;10.196;2023-06-10T02:04:30;7.82;;;2.90;;
71665;SDS011;59503;53.486;10.196;2023-06-10T02:06:56;11.70;;;2.73;;
71665;SDS011;59503;53.486;10.196;2023-06-10T02:09:21;9.38;;;2.75;;
71665;SDS011;59503;53.486;10.196;2023-06-10T02:11:48;9.47;;;3.20;;
71665;SDS011;59503;53.486;10.196;2023-06-10T02:14:13;9.35;;;2.75;;
71665;SDS011;59503;53.486;10.196;2023-06-10T02:16:39;13.27;;;3.40;;
71665;SDS011;59503;53.486;10.196;2023-06-10T02:19:05;10.27;;;2.63;;
71665;SDS011;59503;53.486;10.196;2023-06-10T02:21:31;11.10;;;2.88;;
71665;SDS011;59503;53.486;10.196;2023-06-10T02:23:57;8.48;;;2.88;;
71665;SDS011;59503;53.486;10.196;2023-06-10T02:26:22;9.20;;;2.40;;
71665;SDS011;59503;53.486;10.196;2023-06-10T02:28:48;6.20;;;2.40;;
71665;SDS011;59503;53.486;10.196;2023-06-10T02:31:13;8.60;;;2.43;;
71665;SDS011;59503;53.486;10.196;2023-06-10T02:33:38;7.53;;;2.65;;
71665;SDS011;59503;53.486;10.196;2023-06-10T02:36:05;11.25;;;3.08;;
71665;SDS011;59503;53.486;10.196;2023-06-10T02:38:31;12.53;;;2.60;;
71665;SDS011;59503;53.486;10.196;2023-06-10T02:40:56;12.60;;;2.90;;
71665;SDS011;59503;53.486;10.196;2023-06-10T02:43:22;7.40;;;2.40;;
71665;SDS011;59503;53.486;10.196;2023-06-10T02:45:47;10.70;;;2.67;;
71665;SDS011;59503;53.486;10.196;2023-06-10T02:48:12;7.30;;;1.87;;
71665;SDS011;59503;53.486;10.196;2023-06-10T02:50:38;8.17;;;2.23;;
71665;SDS011;59503;53.486;10.196;2023-06-10T02:53:05;5.67;;;2.33;;
71665;SDS011;59503;53.486;10.196;2023-06-10T02:55:30;7.40;;;2.05;;
71665;SDS011;59503;53.486;10.196;2023-06-10T02:57:57;12.43;;;2.17;;
71665;SDS011;59503;53.486;10.196;2023-06-10T03:00:23;6.57;;;2.00;;
71665;SDS011;59503;53.486;10.196;2023-06-10T03:02:48;8.63;;;2.60;;
71665;SDS011;59503;53.486;10.196;2023-06-10T03:05:14;6.90;;;1.98;;
71665;SDS011;59503;53.486;10.196;2023-06-10T03:07:39;9.27;;;2.40;;
71665;SDS011;59503;53.486;10.196;2023-06-10T03:10:05;8.65;;;2.17;;
71665;SDS011;59503;53.486;10.196;2023-06-10T03:12:31;5.97;;;2.35;;
71665;SDS011;59503;53.486;10.196;2023-06-10T03:14:57;9.43;;;2.40;;
71665;SDS011;59503;53.486;10.196;2023-06-10T03:17:23;13.80;;;3.03;;
71665;SDS011;59503;53.486;10.196;2023-06-10T03:19:48;6.40;;;2.40;;
71665;SDS011;59503;53.486;10.196;2023-06-10T03:22:14;10.90;;;2.00;;
71665;SDS011;59503;53.486;10.196;2023-06-10T03:24:41;9.87;;;2.43;;
71665;SDS011;59503;53.486;10.196;2023-06-10T03:27:07;8.57;;;2.67;;
71665;SDS011;59503;53.486;10.196;2023-06-10T03:29:33;8.13;;;1.90;;
71665;SDS011;59503;53.486;10.196;2023-06-10T03:31:58;8.00;;;2.10;;
71665;SDS011;59503;53.486;10.196;2023-06-10T03:34:24;7.87;;;1.63;;
71665;SDS011;59503;53.486;10.196;2023-06-10T03:36:49;13.27;;;2.57;;
71665;SDS011;59503;53.486;10.196;2023-06-10T03:39:15;5.70;;;1.83;;
71665;SDS011;59503;53.486;10.196;2023-06-10T03:41:41;9.50;;;2.07;;
71665;SDS011;59503;53.486;10.196;2023-06-10T03:44:06;4.53;;;1.65;;
71665;SDS011;59503;53.486;10.196;2023-06-10T03:46:32;11.40;;;2.87;;
71665;SDS011;59503;53.486;10.196;2023-06-10T03:48:57;5.90;;;1.90;;
71665;SDS011;59503;53.486;10.196;2023-06-10T03:51:25;6.10;;;2.07;;
71665;SDS011;59503;53.486;10.196;2023-06-10T03:53:51;5.32;;;2.38;;
71665;SDS011;59503;53.486;10.196;2023-06-10T03:56:17;8.17;;;1.93;;
71665;SDS011;59503;53.486;10.196;2023-06-10T03:58:42;7.13;;;1.93;;
71665;SDS011;59503;53.486;10.196;2023-06-10T04:01:07;8.47;;;1.77;;
71665;SDS011;59503;53.486;10.196;2023-06-10T04:03:33;6.97;;;1.83;;
71665;SDS011;59503;53.486;10.196;2023-06-10T04:05:58;5.07;;;1.70;;
71665;SDS011;59503;53.486;10.196;2023-06-10T04:08:23;7.07;;;1.73;;
71665;SDS011;59503;53.486;10.196;2023-06-10T04:10:49;7.67;;;1.80;;
71665;SDS011;59503;53.486;10.196;2023-06-10T04:13:14;9.27;;;1.80;;
71665;SDS011;59503;53.486;10.196;2023-06-10T04:15:40;5.83;;;2.10;;
71665;SDS011;59503;53.486;10.196;2023-06-10T04:18:06;10.23;;;2.00;;
71665;SDS011;59503;53.486;10.196;2023-06-10T04:20:31;6.80;;;2.30;;
71665;SDS011;59503;53.486;10.196;2023-06-10T04:22:57;6.83;;;2.10;;
71665;SDS011;59503;53.486;10.196;2023-06-10T04:25:22;4.87;;;1.57;;
71665;SDS011;59503;53.486;10.196;2023-06-10T04:27:49;7.60;;;2.15;;
71665;SDS011;59503;53.486;10.196;2023-06-10T04:30:15;5.17;;;1.70;;
71665;SDS011;59503;53.486;10.196;2023-06-10T04:32:41;12.60;;;1.90;;
71665;SDS011;59503;53.486;10.196;2023-06-10T04:35:06;9.37;;;1.90;;
71665;SDS011;59503;53.486;10.196;2023-06-10T04:37:32;7.70;;;1.55;;
71665;SDS011;59503;53.486;10.196;2023-06-10T04:39:58;9.13;;;1.70;;
71665;SDS011;59503;53.486;10.196;2023-06-10T04:42:24;7.80;;;1.37;;
71665;SDS011;59503;53.486;10.196;2023-06-10T04:44:49;7.97;;;1.40;;
71665;SDS011;59503;53.486;10.196;2023-06-10T04:47:15;6.03;;;1.93;;
71665;SDS011;59503;53.486;10.196;2023-06-10T04:49:42;7.10;;;1.55;;
71665;SDS011;59503;53.486;10.196;2023-06-10T04:52:07;9.27;;;1.70;;
71665;SDS011;59503;53.486;10.196;2023-06-10T04:54:33;5.20;;;1.10;;
71665;SDS011;59503;53.486;10.196;2023-06-10T04:56:58;8.63;;;2.03;;
71665;SDS011;59503;53.486;10.196;2023-06-10T04:59:25;10.15;;;1.80;;
71665;SDS011;59503;53.486;10.196;2023-06-10T05:01:51;12.47;;;1.50;;
71665;SDS011;59503;53.486;10.196;2023-06-10T05:04:16;8.13;;;1.23;;
71665;SDS011;59503;53.486;10.196;2023-06-10T05:06:41;7.05;;;1.63;;
71665;SDS011;59503;53.486;10.196;2023-06-10T05:09:07;6.03;;;1.60;;
71665;SDS011;59503;53.486;10.196;2023-06-10T05:11:32;3.30;;;1.23;;
71665;SDS011;59503;53.486;10.196;2023-06-10T05:13:58;5.93;;;1.25;;
71665;SDS011;59503;53.486;10.196;2023-06-10T05:16:23;6.47;;;1.53;;
71665;SDS011;59503;53.486;10.196;2023-06-10T05:18:48;9.40;;;1.40;;
71665;SDS011;59503;53.486;10.196;2023-06-10T05:21:16;7.38;;;1.42;;
71665;SDS011;59503;53.486;10.196;2023-06-10T05:23:41;8.10;;;1.10;;
71665;SDS011;59503;53.486;10.196;2023-06-10T05:26:06;6.40;;;1.30;;
71665;SDS011;59503;53.486;10.196;2023-06-10T05:28:32;9.00;;;1.50;;
71665;SDS011;59503;53.486;10.196;2023-06-10T05:30:57;6.68;;;1.58;;
71665;SDS011;59503;53.486;10.196;2023-06-10T05:33:22;6.53;;;1.10;;
71665;SDS011;59503;53.486;10.196;2023-06-10T05:35:48;4.13;;;1.40;;
71665;SDS011;59503;53.486;10.196;2023-06-10T05:38:13;6.80;;;1.50;;
71665;SDS011;59503;53.486;10.196;2023-06-10T05:40:39;5.45;;;1.30;;
71665;SDS011;59503;53.486;10.196;2023-06-10T05:43:04;9.80;;;1.30;;
71665;SDS011;59503;53.486;10.196;2023-06-10T05:45:30;2.63;;;1.27;;
71665;SDS011;59503;53.486;10.196;2023-06-10T05:47:55;4.65;;;1.20;;
71665;SDS011;59503;53.486;10.196;2023-06-10T05:50:21;9.80;;;1.27;;
71665;SDS011;59503;53.486;10.196;2023-06-10T05:52:46;4.35;;;1.50;;
71665;SDS011;59503;53.486;10.196;2023-06-10T05:55:12;4.83;;;1.27;;
71665;SDS011;59503;53.486;10.196;2023-06-10T05:57:37;8.40;;;1.70;;
71665;SDS011;59503;53.486;10.196;2023-06-10T06:00:03;8.63;;;1.90;;
71665;SDS011;59503;53.486;10.196;2023-06-10T06:02:29;10.27;;;2.08;;
71665;SDS011;59503;53.486;10.196;2023-06-10T06:04:54;8.10;;;2.07;;
71665;SDS011;59503;53.486;10.196;2023-06-10T06:07:20;8.25;;;1.88;;
71665;SDS011;59503;53.486;10.196;2023-06-10T06:09:46;5.00;;;1.50;;
71665;SDS011;59503;53.486;10.196;2023-06-10T06:12:12;7.53;;;1.58;;
71665;SDS011;59503;53.486;10.196;2023-06-10T06:14:37;6.00;;;1.33;;
71665;SDS011;59503;53.486;10.196;2023-06-10T06:17:07;4.72;;;1.70;;
71665;SDS011;59503;53.486;10.196;2023-06-10T06:19:34;4.90;;;1.55;;
71665;SDS011;59503;53.486;10.196;2023-06-10T06:21:59;8.23;;;1.70;;
71665;SDS011;59503;53.486;10.196;2023-06-10T06:24:25;7.63;;;1.93;;
71665;SDS011;59503;53.486;10.196;2023-06-10T06:26:50;6.17;;;1.77;;
71665;SDS011;59503;53.486;10.196;2023-06-10T06:29:15;7.80;;;1.60;;
71665;SDS011;59503;53.486;10.196;2023-06-10T06:31:41;6.10;;;2.23;;
71665;SDS011;59503;53.486;10.196;2023-06-10T06:34:06;4.63;;;1.80;;
71665;SDS011;59503;53.486;10.196;2023-06-10T06:36:32;7.50;;;1.87;;
71665;SDS011;59503;53.486;10.196;2023-06-10T06:38:57;7.25;;;1.95;;
71665;SDS011;59503;53.486;10.196;2023-06-10T06:41:24;6.87;;;2.40;;
71665;SDS011;59503;53.486;10.196;2023-06-10T06:43:51;9.27;;;2.58;;
71665;SDS011;59503;53.486;10.196;2023-06-10T06:46:16;6.17;;;1.73;;
71665;SDS011;59503;53.486;10.196;2023-06-10T06:48:42;5.67;;;1.67;;
71665;SDS011;59503;53.486;10.196;2023-06-10T06:51:07;6.27;;;1.50;;
71665;SDS011;59503;53.486;10.196;2023-06-10T06:53:36;6.93;;;1.83;;
71665;SDS011;59503;53.486;10.196;2023-06-10T06:56:01;9.40;;;1.83;;
71665;SDS011;59503;53.486;10.196;2023-06-10T06:58:28;7.25;;;2.20;;
71665;SDS011;59503;53.486;10.196;2023-06-10T07:00:53;8.63;;;2.27;;
71665;SDS011;59503;53.486;10.196;2023-06-10T07:03:18;8.70;;;1.80;;
71665;SDS011;59503;53.486;10.196;2023-06-10T07:05:44;8.50;;;2.25;;
71665;SDS011;59503;53.486;10.196;2023-06-10T07:08:10;8.67;;;1.80;;
71665;SDS011;59503;53.486;10.196;2023-06-10T07:10:37;6.10;;;2.10;;
71665;SDS011;59503;53.486;10.196;2023-06-10T07:13:02;13.73;;;2.40;;
71665;SDS011;59503;53.486;10.196;2023-06-10T07:15:28;6.77;;;2.50;;
71665;SDS011;59503;53.486;10.196;2023-06-10T07:17:53;9.77;;;1.98;;
71665;SDS011;59503;53.486;10.196;2023-06-10T07:20:18;9.97;;;2.40;;
71665;SDS011;59503;53.486;10.196;2023-06-10T07:22:44;4.90;;;2.10;;
71665;SDS011;59503;53.486;10.196;2023-06-10T07:25:09;5.60;;;1.90;;
71665;SDS011;59503;53.486;10.196;2023-06-10T07:27:34;6.00;;;2.30;;
71665;SDS011;59503;53.486;10.196;2023-06-10T07:30:02;6.07;;;2.10;;
71665;SDS011;59503;53.486;10.196;2023-06-10T07:32:29;9.25;;;2.78;;
71665;SDS011;59503;53.486;10.196;2023-06-10T07:34:55;4.63;;;2.40;;
71665;SDS011;59503;53.486;10.196;2023-06-10T07:37:20;5.22;;;2.45;;
71665;SDS011;59503;53.486;10.196;2023-06-10T07:39:46;5.20;;;2.00;;
71665;SDS011;59503;53.486;10.196;2023-06-10T07:42:11;7.07;;;2.17;;
71665;SDS011;59503;53.486;10.196;2023-06-10T07:44:36;7.83;;;2.30;;
71665;SDS011;59503;53.486;10.196;2023-06-10T07:47:02;6.50;;;2.50;;
71665;SDS011;59503;53.486;10.196;2023-06-10T07:49:27;7.27;;;2.63;;
71665;SDS011;59503;53.486;10.196;2023-06-10T07:51:56;7.17;;;2.37;;
71665;SDS011;59503;53.486;10.196;2023-06-10T07:54:22;8.38;;;2.47;;
71665;SDS011;59503;53.486;10.196;2023-06-10T07:56:47;19.80;;;3.37;;
71665;SDS011;59503;53.486;10.196;2023-06-10T07:59:13;6.13;;;2.83;;
71665;SDS011;59503;53.486;10.196;2023-06-10T08:01:39;7.90;;;2.75;;
71665;SDS011;59503;53.486;10.196;2023-06-10T08:04:05;10.43;;;3.10;;
71665;SDS011;59503;53.486;10.196;2023-06-10T08:06:30;8.15;;;2.67;;
71665;SDS011;59503;53.486;10.196;2023-06-10T08:08:56;7.90;;;2.83;;
71665;SDS011;59503;53.486;10.196;2023-06-10T08:11:21;6.47;;;2.90;;
71665;SDS011;59503;53.486;10.196;2023-06-10T08:13:47;11.43;;;3.03;;
71665;SDS011;59503;53.486;10.196;2023-06-10T08:16:12;8.63;;;2.80;;
71665;SDS011;59503;53.486;10.196;2023-06-10T08:18:37;7.77;;;3.00;;
71665;SDS011;59503;53.486;10.196;2023-06-10T08:21:03;7.40;;;3.17;;
71665;SDS011;59503;53.486;10.196;2023-06-10T08:23:28;6.97;;;3.25;;
71665;SDS011;59503;53.486;10.196;2023-06-10T08:25:54;9.17;;;2.97;;
71665;SDS011;59503;53.486;10.196;2023-06-10T08:28:19;10.00;;;2.70;;
71665;SDS011;59503;53.486;10.196;2023-06-10T08:30:44;4.97;;;2.47;;
71665;SDS011;59503;53.486;10.196;2023-06-10T08:33:11;8.25;;;3.35;;
71665;SDS011;59503;53.486;10.196;2023-06-10T08:35:36;8.37;;;3.03;;
71665;SDS011;59503;53.486;10.196;2023-06-10T08:38:02;7.10;;;3.10;;
71665;SDS011;59503;53.486;10.196;2023-06-10T08:40:27;6.30;;;3.22;;
71665;SDS011;59503;53.486;10.196;2023-06-10T08:45:27;6.65;;;3.15;;
71665;SDS011;59503;53.486;10.196;2023-06-10T08:47:56;11.87;;;3.30;;
71665;SDS011;59503;53.486;10.196;2023-06-10T08:50:22;8.35;;;3.22;;
71665;SDS011;59503;53.486;10.196;2023-06-10T08:52:48;7.87;;;3.23;;
71665;SDS011;59503;53.486;10.196;2023-06-10T08:55:21;8.55;;;3.00;;
71665;SDS011;59503;53.486;10.196;2023-06-10T08:57:52;7.07;;;3.40;;
71665;SDS011;59503;53.486;10.196;2023-06-10T09:00:19;7.15;;;3.28;;
71665;SDS011;59503;53.486;10.196;2023-06-10T09:02:44;8.75;;;3.78;;
71665;SDS011;59503;53.486;10.196;2023-06-10T09:05:10;6.93;;;3.43;;
71665;SDS011;59503;53.486;10.196;2023-06-10T09:07:36;9.30;;;3.60;;
71665;SDS011;59503;53.486;10.196;2023-06-10T09:10:02;6.28;;;3.53;;
71665;SDS011;59503;53.486;10.196;2023-06-10T09:12:29;7.87;;;3.77;;
71665;SDS011;59503;53.486;10.196;2023-06-10T09:14:55;13.23;;;3.95;;
71665;SDS011;59503;53.486;10.196;2023-06-10T09:17:21;8.63;;;3.37;;
71665;SDS011;59503;53.486;10.196;2023-06-10T09:19:47;9.30;;;3.63;;
71665;SDS011;59503;53.486;10.196;2023-06-10T09:22:12;7.80;;;3.70;;
71665;SDS011;59503;53.486;10.196;2023-06-10T09:24:38;11.17;;;4.20;;
71665;SDS011;59503;53.486;10.196;2023-06-10T09:27:05;8.90;;;3.38;;
71665;SDS011;59503;53.486;10.196;2023-06-10T09:29:53;10.52;;;3.90;;
71665;SDS011;59503;53.486;10.196;2023-06-10T09:32:18;7.50;;;3.90;;
71665;SDS011;59503;53.486;10.196;2023-06-10T09:34:44;7.57;;;3.55;;
71665;SDS011;59503;53.486;10.196;2023-06-10T09:37:11;9.63;;;3.97;;
71665;SDS011;59503;53.486;10.196;2023-06-10T09:39:38;9.55;;;4.03;;
71665;SDS011;59503;53.486;10.196;2023-06-10T09:42:15;6.28;;;3.90;;
71665;SDS011;59503;53.486;10.196;2023-06-10T09:44:50;7.03;;;3.77;;
71665;SDS011;59503;53.486;10.196;2023-06-10T09:47:20;11.10;;;5.00;;
71665;SDS011;59503;53.486;10.196;2023-06-10T09:49:46;9.85;;;5.00;;
71665;SDS011;59503;53.486;10.196;2023-06-10T09:52:11;9.40;;;3.73;;
71665;SDS011;59503;53.486;10.196;2023-06-10T09:54:37;6.57;;;3.90;;
71665;SDS011;59503;53.486;10.196;2023-06-10T09:57:07;9.85;;;4.40;;
71665;SDS011;59503;53.486;10.196;2023-06-10T09:59:33;7.63;;;4.33;;
71665;SDS011;59503;53.486;10.196;2023-06-10T10:01:59;9.00;;;3.90;;
71665;SDS011;59503;53.486;10.196;2023-06-10T10:04:25;7.90;;;4.40;;
71665;SDS011;59503;53.486;10.196;2023-06-10T10:06:51;8.35;;;3.90;;
71665;SDS011;59503;53.486;10.196;2023-06-10T10:09:17;8.52;;;4.32;;
71665;SDS011;59503;53.486;10.196;2023-06-10T10:11:43;8.80;;;4.10;;
71665;SDS011;59503;53.486;10.196;2023-06-10T10:14:09;8.07;;;4.05;;
71665;SDS011;59503;53.486;10.196;2023-06-10T10:16:36;7.85;;;4.45;;
71665;SDS011;59503;53.486;10.196;2023-06-10T10:19:14;9.07;;;4.07;;
71665;SDS011;59503;53.486;10.196;2023-06-10T10:21:50;5.70;;;3.80;;
71665;SDS011;59503;53.486;10.196;2023-06-10T10:24:20;8.80;;;4.75;;
71665;SDS011;59503;53.486;10.196;2023-06-10T10:26:48;10.13;;;4.40;;
71665;SDS011;59503;53.486;10.196;2023-06-10T10:29:31;8.23;;;4.47;;
71665;SDS011;59503;53.486;10.196;2023-06-10T10:32:02;7.17;;;4.43;;
71665;SDS011;59503;53.486;10.196;2023-06-10T10:34:30;12.15;;;5.22;;
71665;SDS011;59503;53.486;10.196;2023-06-10T10:37:06;9.85;;;5.30;;
71665;SDS011;59503;53.486;10.196;2023-06-10T10:39:33;8.17;;;5.27;;
71665;SDS011;59503;53.486;10.196;2023-06-10T10:42:00;8.95;;;4.97;;
71665;SDS011;59503;53.486;10.196;2023-06-10T10:44:28;7.57;;;4.82;;
71665;SDS011;59503;53.486;10.196;2023-06-10T10:46:56;9.32;;;4.45;;
71665;SDS011;59503;53.486;10.196;2023-06-10T10:49:22;7.07;;;4.90;;
71665;SDS011;59503;53.486;10.196;2023-06-10T10:52:00;5.85;;;4.30;;
71665;SDS011;59503;53.486;10.196;2023-06-10T10:54:31;11.25;;;4.82;;
71665;SDS011;59503;53.486;10.196;2023-06-10T10:57:10;6.13;;;4.60;;
71665;SDS011;59503;53.486;10.196;2023-06-10T11:02:18;10.10;;;5.00;;
71665;SDS011;59503;53.486;10.196;2023-06-10T11:04:47;14.23;;;5.43;;
71665;SDS011;59503;53.486;10.196;2023-06-10T11:07:13;10.02;;;4.57;;
71665;SDS011;59503;53.486;10.196;2023-06-10T11:09:58;7.38;;;4.88;;
71665;SDS011;59503;53.486;10.196;2023-06-10T11:12:53;8.88;;;5.03;;
71665;SDS011;59503;53.486;10.196;2023-06-10T11:15:23;7.50;;;5.43;;
71665;SDS011;59503;53.486;10.196;2023-06-10T11:18:06;10.27;;;5.30;;
71665;SDS011;59503;53.486;10.196;2023-06-10T11:25:49;7.93;;;5.38;;
71665;SDS011;59503;53.486;10.196;2023-06-10T11:28:18;9.37;;;5.83;;
71665;SDS011;59503;53.486;10.196;2023-06-10T11:30:44;6.25;;;5.55;;
71665;SDS011;59503;53.486;10.196;2023-06-10T11:33:14;8.07;;;5.57;;
71665;SDS011;59503;53.486;10.196;2023-06-10T11:35:42;11.32;;;6.10;;
71665;SDS011;59503;53.486;10.196;2023-06-10T11:38:08;9.52;;;5.78;;
71665;SDS011;59503;53.486;10.196;2023-06-10T11:40:34;13.57;;;5.97;;
71665;SDS011;59503;53.486;10.196;2023-06-10T11:43:00;9.43;;;5.60;;
71665;SDS011;59503;53.486;10.196;2023-06-10T11:45:26;8.60;;;5.78;;
71665;SDS011;59503;53.486;10.196;2023-06-10T11:47:55;9.80;;;5.60;;
71665;SDS011;59503;53.486;10.196;2023-06-10T11:50:28;10.98;;;5.88;;
71665;SDS011;59503;53.486;10.196;2023-06-10T11:52:58;12.95;;;5.75;;
71665;SDS011;59503;53.486;10.196;2023-06-10T11:55:45;9.77;;;5.17;;
71665;SDS011;59503;53.486;10.196;2023-06-10T11:58:17;8.67;;;5.97;;
71665;SDS011;59503;53.486;10.196;2023-06-10T12:00:51;10.90;;;6.10;;
71665;SDS011;59503;53.486;10.196;2023-06-10T12:03:22;9.20;;;5.53;;
71665;SDS011;59503;53.486;10.196;2023-06-10T12:08:24;9.03;;;5.70;;
71665;SDS011;59503;53.486;10.196;2023-06-10T12:10:50;12.15;;;6.00;;
71665;SDS011;59503;53.486;10.196;2023-06-10T12:13:16;10.77;;;5.93;;
71665;SDS011;59503;53.486;10.196;2023-06-10T12:15:45;7.43;;;5.37;;
71665;SDS011;59503;53.486;10.196;2023-06-10T12:20:46;11.20;;;6.18;;
71665;SDS011;59503;53.486;10.196;2023-06-10T12:23:12;10.40;;;5.75;;
71665;SDS011;59503;53.486;10.196;2023-06-10T12:25:38;13.43;;;5.70;;
71665;SDS011;59503;53.486;10.196;2023-06-10T12:28:04;10.03;;;5.37;;
71665;SDS011;59503;53.486;10.196;2023-06-10T12:30:30;13.18;;;5.75;;
71665;SDS011;59503;53.486;10.196;2023-06-10T12:32:56;7.32;;;6.13;;
71665;SDS011;59503;53.486;10.196;2023-06-10T12:35:26;7.53;;;5.77;;
71665;SDS011;59503;53.486;10.196;2023-06-10T12:37:56;13.67;;;6.13;;
71665;SDS011;59503;53.486;10.196;2023-06-10T12:40:25;9.93;;;5.90;;
71665;SDS011;59503;53.486;10.196;2023-06-10T12:42:56;12.02;;;5.75;;
71665;SDS011;59503;53.486;10.196;2023-06-10T12:50:41;10.10;;;6.17;;
71665;SDS011;59503;53.486;10.196;2023-06-10T12:53:07;8.38;;;5.70;;
71665;SDS011;59503;53.486;10.196;2023-06-10T12:55:33;10.20;;;5.85;;
71665;SDS011;59503;53.486;10.196;2023-06-10T12:57:59;11.30;;;6.17;;
71665;SDS011;59503;53.486;10.196;2023-06-10T13:00:26;7.75;;;5.05;;
71665;SDS011;59503;53.486;10.196;2023-06-10T13:02:54;8.98;;;5.50;;
71665;SDS011;59503;53.486;10.196;2023-06-10T13:05:25;9.05;;;5.38;;
71665;SDS011;59503;53.486;10.196;2023-06-10T13:07:51;10.97;;;6.33;;
71665;SDS011;59503;53.486;10.196;2023-06-10T13:10:16;7.30;;;5.60;;
71665;SDS011;59503;53.486;10.196;2023-06-10T13:12:43;8.23;;;5.90;;
71665;SDS011;59503;53.486;10.196;2023-06-10T13:15:09;9.60;;;5.78;;
71665;SDS011;59503;53.486;10.196;2023-06-10T13:17:35;10.82;;;6.10;;
71665;SDS011;59503;53.486;10.196;2023-06-10T13:20:02;7.83;;;5.60;;
71665;SDS011;59503;53.486;10.196;2023-06-10T13:22:30;6.57;;;5.90;;
71665;SDS011;59503;53.486;10.196;2023-06-10T13:24:58;8.50;;;5.78;;
71665;SDS011;59503;53.486;10.196;2023-06-10T13:27:24;13.52;;;5.93;;
71665;SDS011;59503;53.486;10.196;2023-06-10T13:29:50;8.30;;;5.67;;
71665;SDS011;59503;53.486;10.196;2023-06-10T13:32:15;10.50;;;6.07;;
71665;SDS011;59503;53.486;10.196;2023-06-10T13:34:40;13.05;;;5.90;;
71665;SDS011;59503;53.486;10.196;2023-06-10T13:37:06;8.97;;;5.70;;
71665;SDS011;59503;53.486;10.196;2023-06-10T13:39:31;7.73;;;5.90;;
71665;SDS011;59503;53.486;10.196;2023-06-10T13:41:57;9.07;;;5.30;;
71665;SDS011;59503;53.486;10.196;2023-06-10T13:44:22;8.17;;;5.73;;
71665;SDS011;59503;53.486;10.196;2023-06-10T13:46:48;9.70;;;5.63;;
71665;SDS011;59503;53.486;10.196;2023-06-10T13:49:13;8.47;;;6.00;;
71665;SDS011;59503;53.486;10.196;2023-06-10T13:51:39;9.20;;;5.95;;
71665;SDS011;59503;53.486;10.196;2023-06-10T13:54:04;8.20;;;5.97;;
71665;SDS011;59503;53.486;10.196;2023-06-10T13:56:30;9.47;;;5.87;;
71665;SDS011;59503;53.486;10.196;2023-06-10T13:58:55;9.85;;;4.95;;
71665;SDS011;59503;53.486;10.196;2023-06-10T14:01:21;9.40;;;5.10;;
71665;SDS011;59503;53.486;10.196;2023-06-10T14:03:46;16.27;;;4.77;;
71665;SDS011;59503;53.486;10.196;2023-06-10T14:06:11;8.77;;;5.10;;
71665;SDS011;59503;53.486;10.196;2023-06-10T14:08:40;11.15;;;6.35;;
71665;SDS011;59503;53.486;10.196;2023-06-10T14:11:05;15.70;;;5.03;;
71665;SDS011;59503;53.486;10.196;2023-06-10T14:13:31;13.13;;;5.53;;
71665;SDS011;59503;53.486;10.196;2023-06-10T14:15:58;8.82;;;5.03;;
71665;SDS011;59503;53.486;10.196;2023-06-10T14:18:27;11.43;;;5.10;;
71665;SDS011;59503;53.486;10.196;2023-06-10T14:20:53;10.43;;;5.18;;
71665;SDS011;59503;53.486;10.196;2023-06-10T14:23:18;9.37;;;5.37;;
71665;SDS011;59503;53.486;10.196;2023-06-10T14:25:43;7.53;;;5.30;;
71665;SDS011;59503;53.486;10.196;2023-06-10T14:28:09;10.00;;;4.90;;
71665;SDS011;59503;53.486;10.196;2023-06-10T14:30:34;11.07;;;5.27;;
71665;SDS011;59503;53.486;10.196;2023-06-10T14:33:00;11.00;;;5.03;;
71665;SDS011;59503;53.486;10.196;2023-06-10T14:35:25;15.30;;;5.13;;
71665;SDS011;59503;53.486;10.196;2023-06-10T14:37:51;10.10;;;4.88;;
71665;SDS011;59503;53.486;10.196;2023-06-10T14:40:16;10.03;;;4.93;;
71665;SDS011;59503;53.486;10.196;2023-06-10T14:42:42;10.43;;;4.63;;
71665;SDS011;59503;53.486;10.196;2023-06-10T14:45:07;10.60;;;5.80;;
71665;SDS011;59503;53.486;10.196;2023-06-10T14:47:35;13.23;;;5.22;;
71665;SDS011;59503;53.486;10.196;2023-06-10T14:50:00;11.47;;;4.73;;
71665;SDS011;59503;53.486;10.196;2023-06-10T14:52:26;17.67;;;4.97;;
71665;SDS011;59503;53.486;10.196;2023-06-10T14:54:51;15.50;;;5.27;;